Time;durP1;ratioP1;P1;durP2;ratioP2;P2;SDS_P1;SDS_P2;PMS_P1;PMS_P2;Temp;Humidity;BMP_temperature;BMP_pressure;BME280_temperature;BME280_humidity;BME280_pressure;Samples;Min_cycle;Max_cycle;Signal;HPM_P1;HPM_P2
2023/06/20 00:02:13;;;;;;;7.15;6.43;;;;;;;;;;5058907;28;20186;-50
2023/06/20 00:04:39;;;;;;;7.18;6.47;;;;;;;;;;5061132;28;20270;-49
2023/06/20 00:07:05;;;;;;;8.63;6.80;;;;;;;;;;5063411;28;20244;-50
2023/06/20 00:09:31;;;;;;;7.72;6.90;;;;;;;;;;5064301;28;20237;-50
2023/06/20 00:11:57;;;;;;;8.65;6.32;;;;;;;;;;5058442;28;20171;-51
2023/06/20 00:14:23;;;;;;;7.63;6.60;;;;;;;;;;5055969;28;20273;-49
2023/06/20 00:16:49;;;;;;;7.20;6.50;;;;;;;;;;5061758;28;20450;-50
2023/06/20 00:19:15;;;;;;;9.95;6.88;;;;;;;;;;5065283;28;20269;-49
2023/06/20 00:21:41;;;;;;;6.60;6.00;;;;;;;;;;5061694;28;20190;-50
2023/06/20 00:24:10;;;;;;;6.65;5.95;;;;;;;;;;5059971;28;20203;-50
2023/06/20 00:26:39;;;;;;;8.85;6.40;;;;;;;;;;5052691;28;20221;-49
2023/06/20 00:29:05;;;;;;;6.57;5.97;;;;;;;;;;5062769;28;20208;-49
2023/06/20 00:31:31;;;;;;;7.75;6.13;;;;;;;;;;5060544;28;20257;-50
2023/06/20 00:33:57;;;;;;;7.22;6.32;;;;;;;;;;5078046;28;20485;-50
2023/06/20 00:36:26;;;;;;;9.00;6.40;;;;;;;;;;5066561;28;20249;-49
2023/06/20 00:38:52;;;;;;;7.03;5.88;;;;;;;;;;5074584;28;20193;-49
2023/06/20 00:41:20;;;;;;;6.60;5.90;;;;;;;;;;5066129;28;20200;-49
2023/06/20 00:43:47;;;;;;;6.85;6.15;;;;;;;;;;5060008;28;20567;-50
2023/06/20 00:46:14;;;;;;;7.07;6.28;;;;;;;;;;5063908;28;20178;-49
2023/06/20 00:48:40;;;;;;;7.25;6.22;;;;;;;;;;5070552;28;20201;-49
2023/06/20 00:51:06;;;;;;;6.82;6.13;;;;;;;;;;5064886;28;20206;-50
2023/06/20 00:53:32;;;;;;;7.47;6.22;;;;;;;;;;5072200;28;20186;-50
2023/06/20 00:55:59;;;;;;;6.00;5.40;;;;;;;;;;5062386;28;20265;-49
2023/06/20 00:58:25;;;;;;;7.35;6.28;;;;;;;;;;5065848;28;20178;-50
2023/06/20 01:00:51;;;;;;;7.20;5.95;;;;;;;;;;5067647;28;20541;-49
2023/06/20 01:03:18;;;;;;;8.65;6.60;;;;;;;;;;5073397;28;20178;-49
2023/06/20 01:05:47;;;;;;;7.22;6.10;;;;;;;;;;5059414;28;20175;-50
2023/06/20 01:08:23;;;;;;;6.40;5.75;;;;;;;;;;5060552;28;20206;-49
2023/06/20 01:10:56;;;;;;;6.90;6.03;;;;;;;;;;5066136;28;20236;-49
2023/06/20 01:13:33;;;;;;;7.10;6.45;;;;;;;;;;5064248;28;20600;-50
2023/06/20 01:16:06;;;;;;;7.57;6.05;;;;;;;;;;5066775;28;20253;-50
2023/06/20 01:18:43;;;;;;;6.45;5.78;;;;;;;;;;5069569;28;20187;-50
2023/06/20 01:21:10;;;;;;;8.95;6.20;;;;;;;;;;5068166;28;20186;-50
2023/06/20 01:23:42;;;;;;;6.30;5.70;;;;;;;;;;5068110;28;20289;-49
2023/06/20 01:26:14;;;;;;;6.93;5.78;;;;;;;;;;5074246;28;20184;-50
2023/06/20 01:28:50;;;;;;;7.55;5.70;;;;;;;;;;5052709;28;20207;-50
2023/06/20 01:31:25;;;;;;;6.68;5.32;;;;;;;;;;5075479;28;20190;-50
2023/06/20 01:33:57;;;;;;;8.30;6.18;;;;;;;;;;5061660;28;20277;-50
2023/06/20 01:36:25;;;;;;;8.13;5.88;;;;;;;;;;5059243;28;20183;-50
2023/06/20 01:38:54;;;;;;;6.70;6.00;;;;;;;;;;5060688;28;20190;-50
2023/06/20 01:41:21;;;;;;;6.45;5.78;;;;;;;;;;5068834;28;20332;-49
2023/06/20 01:43:48;;;;;;;6.57;5.55;;;;;;;;;;5064610;28;20224;-49
2023/06/20 01:46:15;;;;;;;6.57;5.97;;;;;;;;;;5060516;28;20194;-49
2023/06/20 01:48:41;;;;;;;8.40;6.40;;;;;;;;;;5068652;28;20210;-49
2023/06/20 01:51:07;;;;;;;6.30;5.45;;;;;;;;;;5056972;28;20555;-50
2023/06/20 01:53:34;;;;;;;6.28;5.68;;;;;;;;;;5064861;28;20175;-50
2023/06/20 01:56:01;;;;;;;7.57;5.82;;;;;;;;;;5061250;28;20546;-49
2023/06/20 01:58:28;;;;;;;8.18;5.93;;;;;;;;;;5062322;28;20571;-49
2023/06/20 02:00:56;;;;;;;6.90;5.95;;;;;;;;;;5054495;28;20551;-49
2023/06/20 02:03:23;;;;;;;6.03;5.40;;;;;;;;;;5066699;28;20183;-49
2023/06/20 02:05:50;;;;;;;6.85;6.15;;;;;;;;;;5068037;28;20253;-49
2023/06/20 02:08:16;;;;;;;6.88;5.47;;;;;;;;;;5060791;28;20210;-50
2023/06/20 02:10:42;;;;;;;7.53;5.93;;;;;;;;;;5072261;28;20458;-50
2023/06/20 02:13:09;;;;;;;8.50;5.93;;;;;;;;;;5063635;28;20531;-49
2023/06/20 02:15:35;;;;;;;6.88;6.20;;;;;;;;;;5059914;28;20273;-50
2023/06/20 02:18:02;;;;;;;7.00;6.30;;;;;;;;;;5067047;28;20507;-50
2023/06/20 02:20:29;;;;;;;7.00;6.03;;;;;;;;;;5055594;28;20182;-50
2023/06/20 02:22:55;;;;;;;7.40;6.18;;;;;;;;;;5053710;28;20223;-50
2023/06/20 02:25:24;;;;;;;6.20;5.60;;;;;;;;;;5061874;28;20183;-50
2023/06/20 02:27:51;;;;;;;6.50;5.78;;;;;;;;;;5067520;28;20740;-50
2023/06/20 02:30:19;;;;;;;6.10;5.50;;;;;;;;;;5061308;28;20191;-49
2023/06/20 02:32:45;;;;;;;5.90;5.30;;;;;;;;;;5056716;28;20167;-50
2023/06/20 02:35:12;;;;;;;7.00;6.30;;;;;;;;;;5070140;28;20758;-49
2023/06/20 02:37:39;;;;;;;6.28;5.68;;;;;;;;;;5053224;28;20590;-50
2023/06/20 02:40:07;;;;;;;6.22;5.63;;;;;;;;;;5058955;28;20183;-49
2023/06/20 02:42:33;;;;;;;6.50;5.90;;;;;;;;;;5064283;28;20174;-50
2023/06/20 02:44:59;;;;;;;6.53;5.85;;;;;;;;;;5057794;28;20565;-50
2023/06/20 02:47:33;;;;;;;7.25;5.70;;;;;;;;;;5065483;28;20179;-49
2023/06/20 02:50:02;;;;;;;6.60;5.85;;;;;;;;;;5056740;28;20217;-50
2023/06/20 02:52:39;;;;;;;9.95;6.25;;;;;;;;;;5069591;28;20171;-50
2023/06/20 02:55:05;;;;;;;6.25;5.65;;;;;;;;;;5063144;28;20182;-50
2023/06/20 02:57:32;;;;;;;6.57;5.85;;;;;;;;;;5067575;28;20171;-50
2023/06/20 03:00:01;;;;;;;6.43;5.82;;;;;;;;;;5059187;28;20171;-51
2023/06/20 03:02:29;;;;;;;6.72;5.75;;;;;;;;;;5062845;28;20225;-50
2023/06/20 03:04:57;;;;;;;6.03;5.18;;;;;;;;;;5049968;28;20445;-49
2023/06/20 03:07:23;;;;;;;7.40;6.10;;;;;;;;;;5056205;28;20566;-49
2023/06/20 03:09:50;;;;;;;7.85;5.82;;;;;;;;;;5065644;28;20207;-50
2023/06/20 03:12:16;;;;;;;9.25;6.00;;;;;;;;;;5052183;28;20194;-50
2023/06/20 03:14:43;;;;;;;9.50;6.15;;;;;;;;;;5066003;28;20174;-50
2023/06/20 03:17:09;;;;;;;6.70;5.75;;;;;;;;;;5066600;28;20194;-50
2023/06/20 03:19:35;;;;;;;6.50;5.90;;;;;;;;;;5062398;28;20186;-50
2023/06/20 03:22:01;;;;;;;7.13;6.05;;;;;;;;;;5059102;28;20617;-50
2023/06/20 03:24:27;;;;;;;7.80;6.13;;;;;;;;;;5065142;28;20190;-50
2023/06/20 03:26:53;;;;;;;8.73;5.78;;;;;;;;;;5066224;28;20179;-49
2023/06/20 03:29:19;;;;;;;7.60;5.63;;;;;;;;;;5060858;28;20242;-50
2023/06/20 03:31:44;;;;;;;8.27;6.10;;;;;;;;;;5054657;28;20172;-48
2023/06/20 03:34:10;;;;;;;7.32;5.95;;;;;;;;;;5061962;28;20186;-50
2023/06/20 03:36:38;;;;;;;9.85;5.65;;;;;;;;;;5053173;28;20187;-43
2023/06/20 03:39:04;;;;;;;8.45;5.68;;;;;;;;;;5052798;28;20171;-43
2023/06/20 03:41:29;;;;;;;7.45;5.47;;;;;;;;;;5063152;28;20188;-43
2023/06/20 03:43:55;;;;;;;7.22;5.35;;;;;;;;;;5058203;28;20183;-43
2023/06/20 03:46:21;;;;;;;7.05;5.30;;;;;;;;;;5059037;28;20194;-43
2023/06/20 03:48:47;;;;;;;9.02;5.55;;;;;;;;;;5048513;28;20203;-43
2023/06/20 03:51:13;;;;;;;10.85;5.25;;;;;;;;;;5062169;28;20624;-43
2023/06/20 03:53:39;;;;;;;12.65;5.25;;;;;;;;;;5061071;28;20229;-43
2023/06/20 03:56:05;;;;;;;8.80;5.95;;;;;;;;;;5060479;28;20203;-43
2023/06/20 03:58:31;;;;;;;6.15;4.90;;;;;;;;;;5053112;28;20258;-43
2023/06/20 04:00:57;;;;;;;9.57;5.40;;;;;;;;;;5053127;28;20610;-43
2023/06/20 04:03:23;;;;;;;8.00;5.28;;;;;;;;;;5057690;28;20270;-43
2023/06/20 04:05:49;;;;;;;5.93;5.32;;;;;;;;;;5058895;28;20179;-43
2023/06/20 04:08:14;;;;;;;8.27;5.68;;;;;;;;;;5053807;28;20249;-43
2023/06/20 04:10:40;;;;;;;9.32;6.00;;;;;;;;;;5053933;28;20773;-42
2023/06/20 04:13:06;;;;;;;6.70;5.57;;;;;;;;;;5054248;28;20452;-42
2023/06/20 04:15:32;;;;;;;9.30;5.43;;;;;;;;;;5062196;28;20221;-43
2023/06/20 04:17:58;;;;;;;8.63;6.20;;;;;;;;;;5055781;28;20207;-43
2023/06/20 04:20:24;;;;;;;10.05;5.25;;;;;;;;;;5053862;28;20704;-42
2023/06/20 04:22:50;;;;;;;5.95;5.35;;;;;;;;;;5052675;28;20570;-42
2023/06/20 04:25:16;;;;;;;6.50;5.47;;;;;;;;;;5062602;28;20717;-43
2023/06/20 04:27:43;;;;;;;7.63;5.88;;;;;;;;;;5060704;28;20254;-43
2023/06/20 04:30:09;;;;;;;6.82;5.57;;;;;;;;;;5061494;28;20218;-42
2023/06/20 04:32:36;;;;;;;9.02;6.03;;;;;;;;;;5064408;28;20186;-42
2023/06/20 04:35:02;;;;;;;7.30;5.57;;;;;;;;;;5065405;28;20489;-43
2023/06/20 04:37:29;;;;;;;9.25;5.72;;;;;;;;;;5053640;28;20190;-42
2023/06/20 04:39:55;;;;;;;5.50;5.00;;;;;;;;;;5053339;28;20561;-42
2023/06/20 04:42:21;;;;;;;6.28;5.20;;;;;;;;;;5054659;28;20179;-43
2023/06/20 04:44:48;;;;;;;6.43;5.53;;;;;;;;;;5059517;28;20179;-43
2023/06/20 04:47:14;;;;;;;6.43;5.68;;;;;;;;;;5065064;28;20268;-43
2023/06/20 04:49:40;;;;;;;7.90;5.32;;;;;;;;;;5045158;28;20341;-43
2023/06/20 04:52:10;;;;;;;8.02;5.53;;;;;;;;;;5053292;28;20176;-43
2023/06/20 04:54:35;;;;;;;6.47;5.30;;;;;;;;;;5062735;28;20440;-43
2023/06/20 04:57:02;;;;;;;6.68;5.97;;;;;;;;;;5047339;28;20201;-43
2023/06/20 04:59:28;;;;;;;6.03;5.43;;;;;;;;;;5050416;28;20194;-43
2023/06/20 05:01:55;;;;;;;8.50;5.45;;;;;;;;;;5056994;28;20546;-43
2023/06/20 05:04:21;;;;;;;5.95;5.25;;;;;;;;;;5058336;28;20174;-43
2023/06/20 05:06:47;;;;;;;6.60;5.82;;;;;;;;;;5054503;28;20179;-43
2023/06/20 05:09:13;;;;;;;6.50;5.38;;;;;;;;;;5053340;28;20215;-42
2023/06/20 05:11:39;;;;;;;7.90;5.70;;;;;;;;;;5059740;28;20262;-42
2023/06/20 05:14:05;;;;;;;6.72;5.45;;;;;;;;;;5065556;28;20189;-43
2023/06/20 05:16:31;;;;;;;5.32;4.82;;;;;;;;;;5052467;28;20183;-43
2023/06/20 05:18:57;;;;;;;6.30;5.70;;;;;;;;;;5061111;28;20187;-43
2023/06/20 05:21:23;;;;;;;6.43;5.25;;;;;;;;;;5064655;28;20195;-43
2023/06/20 05:23:49;;;;;;;6.72;5.88;;;;;;;;;;5049860;28;20198;-43
2023/06/20 05:26:15;;;;;;;7.53;5.70;;;;;;;;;;5056693;28;20179;-42
2023/06/20 05:28:40;;;;;;;6.60;5.97;;;;;;;;;;5059020;28;20228;-43
2023/06/20 05:31:06;;;;;;;7.20;5.63;;;;;;;;;;5071224;28;20235;-42
2023/06/20 05:33:32;;;;;;;7.70;6.05;;;;;;;;;;5076651;28;20179;-42
2023/06/20 05:35:58;;;;;;;6.60;5.85;;;;;;;;;;5076511;28;20506;-42
2023/06/20 05:38:24;;;;;;;5.97;5.38;;;;;;;;;;5064273;28;20270;-42
2023/06/20 05:40:51;;;;;;;6.80;6.00;;;;;;;;;;5059593;28;20206;-43
2023/06/20 05:43:17;;;;;;;6.43;5.82;;;;;;;;;;5064123;28;20175;-43
2023/06/20 05:45:43;;;;;;;7.22;6.13;;;;;;;;;;5059482;28;20240;-43
2023/06/20 05:48:09;;;;;;;7.15;5.93;;;;;;;;;;5055803;28;20198;-43
2023/06/20 05:50:35;;;;;;;7.50;6.57;;;;;;;;;;5066346;28;20216;-43
2023/06/20 05:53:02;;;;;;;6.63;5.85;;;;;;;;;;5056560;28;20270;-42
2023/06/20 05:55:28;;;;;;;7.43;6.50;;;;;;;;;;5055306;28;20187;-43
2023/06/20 05:57:54;;;;;;;6.80;6.20;;;;;;;;;;5056479;28;20236;-42
2023/06/20 06:00:21;;;;;;;8.23;5.53;;;;;;;;;;5065543;28;20183;-42
2023/06/20 06:02:47;;;;;;;6.38;5.78;;;;;;;;;;5068777;28;20171;-43
2023/06/20 06:05:13;;;;;;;7.00;6.30;;;;;;;;;;5063991;28;20198;-43
2023/06/20 06:07:39;;;;;;;6.50;5.75;;;;;;;;;;5055275;28;20180;-43
2023/06/20 06:10:09;;;;;;;8.25;6.50;;;;;;;;;;5059568;28;20216;-42
2023/06/20 06:12:36;;;;;;;8.70;6.53;;;;;;;;;;5062762;28;20198;-42
2023/06/20 06:15:02;;;;;;;6.72;5.82;;;;;;;;;;5064573;28;20197;-42
2023/06/20 06:17:30;;;;;;;9.88;6.53;;;;;;;;;;5067903;28;20269;-41
2023/06/20 06:19:56;;;;;;;6.30;5.70;;;;;;;;;;5050902;28;20183;-42
2023/06/20 06:22:22;;;;;;;6.97;6.13;;;;;;;;;;5061724;28;20225;-42
2023/06/20 06:24:48;;;;;;;7.53;6.22;;;;;;;;;;5055129;28;20416;-42
2023/06/20 06:27:14;;;;;;;7.00;6.18;;;;;;;;;;5054571;28;20175;-41
2023/06/20 06:29:40;;;;;;;8.40;6.72;;;;;;;;;;5054717;28;20260;-41
2023/06/20 06:32:07;;;;;;;10.52;6.63;;;;;;;;;;5060429;28;20179;-41
2023/06/20 06:34:33;;;;;;;7.28;6.28;;;;;;;;;;5055653;28;20245;-42
2023/06/20 06:36:59;;;;;;;7.97;6.53;;;;;;;;;;5053670;28;20485;-41
2023/06/20 06:39:25;;;;;;;7.60;6.32;;;;;;;;;;5061312;28;20441;-41
2023/06/20 06:41:51;;;;;;;7.00;6.03;;;;;;;;;;5072931;28;20171;-41
2023/06/20 06:44:17;;;;;;;9.95;6.72;;;;;;;;;;5055326;28;20175;-42
2023/06/20 06:46:44;;;;;;;6.65;6.05;;;;;;;;;;5055983;28;20194;-41
2023/06/20 06:49:09;;;;;;;7.13;6.43;;;;;;;;;;5060061;28;20206;-42
2023/06/20 06:51:39;;;;;;;8.18;6.72;;;;;;;;;;5063365;28;20539;-41
2023/06/20 06:54:05;;;;;;;7.07;6.25;;;;;;;;;;5055568;28;20232;-42
2023/06/20 06:56:31;;;;;;;6.78;6.07;;;;;;;;;;5054575;28;20669;-41
2023/06/20 06:59:00;;;;;;;7.10;5.97;;;;;;;;;;5054430;28;20574;-41
2023/06/20 07:01:26;;;;;;;6.70;6.00;;;;;;;;;;5060499;28;20801;-41
2023/06/20 07:03:52;;;;;;;7.15;6.30;;;;;;;;;;5055238;28;20202;-42
2023/06/20 07:06:19;;;;;;;6.53;5.93;;;;;;;;;;5070090;28;20542;-42
2023/06/20 07:08:45;;;;;;;7.65;6.25;;;;;;;;;;5053865;28;20206;-42
2023/06/20 07:11:11;;;;;;;9.07;6.30;;;;;;;;;;5062797;28;20478;-42
2023/06/20 07:13:37;;;;;;;9.00;6.20;;;;;;;;;;5070496;28;20206;-42
2023/06/20 07:16:03;;;;;;;7.40;6.43;;;;;;;;;;5067569;28;20183;-42
2023/06/20 07:18:29;;;;;;;7.18;6.18;;;;;;;;;;5053199;28;20187;-42
2023/06/20 07:20:57;;;;;;;6.78;5.93;;;;;;;;;;5066334;28;20181;-42
2023/06/20 07:23:23;;;;;;;6.38;5.70;;;;;;;;;;5063507;28;20570;-42
2023/06/20 07:25:49;;;;;;;8.25;6.05;;;;;;;;;;5054149;28;20825;-42
2023/06/20 07:28:14;;;;;;;6.25;5.65;;;;;;;;;;5053947;28;20175;-42
2023/06/20 07:30:40;;;;;;;8.43;6.47;;;;;;;;;;5064541;28;20262;-43
2023/06/20 07:33:06;;;;;;;7.18;6.47;;;;;;;;;;5068654;28;20561;-42
2023/06/20 07:35:33;;;;;;;9.20;6.45;;;;;;;;;;5052816;28;20221;-42
2023/06/20 07:37:59;;;;;;;6.85;6.10;;;;;;;;;;5061864;28;20175;-43
2023/06/20 07:40:24;;;;;;;7.10;6.18;;;;;;;;;;5060164;28;20190;-42
2023/06/20 07:42:50;;;;;;;8.48;7.05;;;;;;;;;;5064101;28;20182;-42
2023/06/20 07:45:16;;;;;;;8.73;6.88;;;;;;;;;;5063843;28;20576;-42
2023/06/20 07:47:42;;;;;;;7.88;6.78;;;;;;;;;;5055659;28;20268;-42
2023/06/20 07:50:09;;;;;;;14.57;7.13;;;;;;;;;;5053139;28;20264;-42
2023/06/20 07:52:35;;;;;;;7.50;6.65;;;;;;;;;;5052751;28;20262;-42
2023/06/20 07:55:03;;;;;;;7.85;6.97;;;;;;;;;;5055079;28;20461;-42
2023/06/20 07:57:28;;;;;;;7.70;6.90;;;;;;;;;;5053699;28;20185;-42
2023/06/20 07:59:54;;;;;;;7.28;6.57;;;;;;;;;;5054098;28;20191;-42
2023/06/20 08:02:21;;;;;;;7.03;6.35;;;;;;;;;;5053245;28;20180;-42
2023/06/20 08:04:47;;;;;;;7.68;6.90;;;;;;;;;;5054965;28;20194;-42
2023/06/20 08:07:13;;;;;;;7.10;6.40;;;;;;;;;;5055887;28;20179;-42
2023/06/20 08:09:39;;;;;;;7.78;6.50;;;;;;;;;;5048954;28;20529;-42
2023/06/20 08:12:05;;;;;;;7.03;6.32;;;;;;;;;;5056961;28;20210;-42
2023/06/20 08:14:31;;;;;;;8.18;6.82;;;;;;;;;;5058464;28;20182;-42
2023/06/20 08:16:57;;;;;;;6.65;5.97;;;;;;;;;;5068652;28;20193;-42
2023/06/20 08:19:23;;;;;;;8.70;6.35;;;;;;;;;;5074304;28;20226;-42
2023/06/20 08:21:49;;;;;;;7.60;6.78;;;;;;;;;;5066568;28;20267;-42
2023/06/20 08:24:15;;;;;;;8.50;7.60;;;;;;;;;;5052079;28;20186;-42
2023/06/20 08:26:41;;;;;;;7.40;6.32;;;;;;;;;;5053531;28;20278;-42
2023/06/20 08:29:08;;;;;;;7.78;6.80;;;;;;;;;;5057172;28;20248;-42
2023/06/20 08:31:37;;;;;;;8.88;7.78;;;;;;;;;;5060374;28;20471;-42
2023/06/20 08:34:03;;;;;;;9.75;7.03;;;;;;;;;;5074044;28;20166;-42
2023/06/20 08:36:29;;;;;;;7.97;6.93;;;;;;;;;;5055903;28;20519;-42
2023/06/20 08:38:55;;;;;;;8.40;7.18;;;;;;;;;;5052752;28;20274;-42
2023/06/20 08:41:27;;;;;;;8.80;7.72;;;;;;;;;;5057773;28;20190;-42
2023/06/20 08:43:53;;;;;;;7.82;7.03;;;;;;;;;;5059061;28;20198;-42
2023/06/20 08:46:20;;;;;;;7.53;6.75;;;;;;;;;;5053045;28;20187;-42
2023/06/20 08:48:46;;;;;;;10.00;7.03;;;;;;;;;;5054217;28;20450;-42
2023/06/20 08:51:15;;;;;;;7.47;6.78;;;;;;;;;;5065298;28;20284;-42
2023/06/20 08:53:41;;;;;;;7.20;6.50;;;;;;;;;;5057150;28;20206;-42
2023/06/20 08:56:07;;;;;;;7.47;6.70;;;;;;;;;;5057074;28;20189;-42
2023/06/20 08:58:33;;;;;;;9.13;6.88;;;;;;;;;;5063064;28;20586;-42
2023/06/20 09:00:59;;;;;;;6.88;6.25;;;;;;;;;;5063995;28;20527;-42
2023/06/20 09:03:25;;;;;;;7.88;7.07;;;;;;;;;;5063257;28;20719;-42
2023/06/20 09:05:51;;;;;;;8.38;6.57;;;;;;;;;;5060661;28;20205;-42
2023/06/20 09:08:17;;;;;;;7.55;6.72;;;;;;;;;;5056662;28;20203;-42
2023/06/20 09:10:44;;;;;;;6.47;5.88;;;;;;;;;;5065894;28;20447;-43
2023/06/20 09:13:11;;;;;;;7.68;6.95;;;;;;;;;;5062285;28;20811;-42
2023/06/20 09:15:38;;;;;;;7.47;6.68;;;;;;;;;;5064399;28;20558;-42
2023/06/20 09:18:06;;;;;;;8.90;7.70;;;;;;;;;;5056499;28;20171;-42
2023/06/20 09:20:32;;;;;;;7.60;6.60;;;;;;;;;;5056771;28;20223;-42
2023/06/20 09:22:59;;;;;;;7.07;6.38;;;;;;;;;;5055347;28;20435;-42
2023/06/20 09:25:26;;;;;;;8.05;7.25;;;;;;;;;;5056518;28;20439;-42
2023/06/20 09:27:52;;;;;;;6.63;6.03;;;;;;;;;;5057959;28;20187;-42
2023/06/20 09:30:19;;;;;;;8.50;6.78;;;;;;;;;;5049130;28;20238;-42
2023/06/20 09:32:45;;;;;;;7.53;6.70;;;;;;;;;;5064730;28;20232;-42
2023/06/20 09:35:11;;;;;;;7.85;7.05;;;;;;;;;;5055342;28;20493;-42
2023/06/20 09:37:37;;;;;;;7.47;6.35;;;;;;;;;;5054431;28;20175;-42
2023/06/20 09:40:10;;;;;;;8.25;7.28;;;;;;;;;;5066981;28;20265;-43
2023/06/20 09:42:37;;;;;;;9.95;7.20;;;;;;;;;;5063953;28;20204;-42
2023/06/20 09:45:03;;;;;;;8.52;7.72;;;;;;;;;;5059306;28;20266;-42
2023/06/20 09:47:29;;;;;;;8.50;7.40;;;;;;;;;;5056356;28;20207;-42
2023/06/20 09:49:57;;;;;;;8.32;7.07;;;;;;;;;;5066397;28;20590;-42
2023/06/20 09:52:26;;;;;;;8.30;7.50;;;;;;;;;;5053785;28;20183;-42
2023/06/20 09:55:02;;;;;;;8.02;7.22;;;;;;;;;;5055607;28;20191;-42
2023/06/20 09:57:51;;;;;;;8.57;7.65;;;;;;;;;;5056605;28;20186;-42
2023/06/20 10:00:18;;;;;;;7.30;6.55;;;;;;;;;;5046756;28;20187;-42
2023/06/20 10:02:47;;;;;;;7.32;6.63;;;;;;;;;;5054252;28;20186;-42
2023/06/20 10:05:14;;;;;;;10.32;7.32;;;;;;;;;;5047690;28;20257;-42
2023/06/20 10:07:41;;;;;;;7.90;7.10;;;;;;;;;;5056244;28;20187;-42
2023/06/20 10:10:07;;;;;;;9.18;7.13;;;;;;;;;;5054005;28;20203;-42
2023/06/20 10:12:33;;;;;;;7.80;7.10;;;;;;;;;;5062741;28;20193;-42
2023/06/20 10:15:01;;;;;;;6.90;6.30;;;;;;;;;;5067295;28;20293;-42
2023/06/20 10:17:31;;;;;;;7.88;7.18;;;;;;;;;;5068625;28;20179;-42
2023/06/20 10:19:57;;;;;;;8.48;7.13;;;;;;;;;;5055146;28;20512;-42
2023/06/20 10:22:33;;;;;;;7.63;6.93;;;;;;;;;;5055701;28;20273;-42
2023/06/20 10:25:19;;;;;;;7.95;7.15;;;;;;;;;;5053130;28;20269;-42
2023/06/20 10:27:54;;;;;;;9.05;7.15;;;;;;;;;;5052256;28;20236;-42
2023/06/20 10:30:39;;;;;;;8.80;6.97;;;;;;;;;;5050804;28;20214;-42
2023/06/20 10:33:05;;;;;;;8.73;7.93;;;;;;;;;;5058619;28;20202;-42
2023/06/20 10:35:32;;;;;;;7.78;6.97;;;;;;;;;;5054960;28;20525;-42
2023/06/20 10:38:15;;;;;;;7.65;6.78;;;;;;;;;;5054463;28;20233;-42
2023/06/20 10:40:41;;;;;;;8.23;7.38;;;;;;;;;;5051025;28;20241;-42
2023/06/20 10:43:08;;;;;;;8.88;7.03;;;;;;;;;;5059481;28;20191;-42
2023/06/20 10:45:35;;;;;;;7.25;6.55;;;;;;;;;;5057141;28;20170;-42
2023/06/20 10:48:02;;;;;;;7.13;6.43;;;;;;;;;;5063888;28;20191;-42
2023/06/20 10:50:28;;;;;;;7.88;6.68;;;;;;;;;;5055785;28;20191;-42
2023/06/20 10:52:54;;;;;;;7.43;6.25;;;;;;;;;;5053425;28;20269;-42
2023/06/20 10:55:24;;;;;;;7.43;6.72;;;;;;;;;;5055145;28;20262;-43
2023/06/20 10:57:50;;;;;;;6.82;6.10;;;;;;;;;;5053083;28;20175;-42
2023/06/20 11:00:18;;;;;;;9.07;6.88;;;;;;;;;;5051095;28;20194;-42
2023/06/20 11:02:47;;;;;;;7.07;6.38;;;;;;;;;;5059112;28;20233;-42
2023/06/20 11:05:13;;;;;;;7.85;7.00;;;;;;;;;;5064942;28;20183;-42
2023/06/20 11:07:51;;;;;;;6.20;5.57;;;;;;;;;;5054642;28;20288;-42
2023/06/20 11:10:17;;;;;;;6.78;6.07;;;;;;;;;;5061036;28;20202;-42
2023/06/20 11:12:43;;;;;;;6.03;5.50;;;;;;;;;;5064759;28;20181;-43
2023/06/20 11:15:38;;;;;;;6.82;6.05;;;;;;;;;;5072750;28;20186;-42
2023/06/20 11:18:06;;;;;;;7.20;5.72;;;;;;;;;;5048479;28;20554;-42
2023/06/20 11:20:36;;;;;;;5.82;5.22;;;;;;;;;;5068606;28;20228;-42
2023/06/20 11:23:03;;;;;;;9.07;5.95;;;;;;;;;;5059874;28;20190;-42
2023/06/20 11:25:30;;;;;;;8.65;6.28;;;;;;;;;;5049461;28;20180;-42
2023/06/20 11:27:56;;;;;;;9.48;5.82;;;;;;;;;;5063608;28;20187;-42
2023/06/20 11:30:26;;;;;;;6.90;6.20;;;;;;;;;;5061412;28;20465;-42
2023/06/20 11:32:59;;;;;;;6.65;5.80;;;;;;;;;;5053875;28;20171;-42
2023/06/20 11:35:25;;;;;;;11.18;6.35;;;;;;;;;;5059419;28;20463;-42
2023/06/20 11:37:51;;;;;;;8.93;6.47;;;;;;;;;;5054721;28;20225;-42
2023/06/20 11:40:17;;;;;;;8.77;5.80;;;;;;;;;;5052691;28;20471;-42
2023/06/20 11:42:43;;;;;;;7.13;6.43;;;;;;;;;;5055363;28;20189;-42
2023/06/20 11:45:09;;;;;;;8.20;6.55;;;;;;;;;;5053658;28;20582;-42
2023/06/20 11:47:35;;;;;;;7.45;6.65;;;;;;;;;;5054405;28;20211;-42
2023/06/20 11:50:01;;;;;;;7.47;6.60;;;;;;;;;;5060396;28;20236;-42
2023/06/20 11:52:33;;;;;;;6.65;5.95;;;;;;;;;;5057657;28;20262;-42
2023/06/20 11:54:59;;;;;;;6.43;5.82;;;;;;;;;;5046552;28;20187;-42
2023/06/20 11:57:30;;;;;;;6.40;5.80;;;;;;;;;;5054304;28;20922;-42
2023/06/20 11:59:59;;;;;;;6.78;6.07;;;;;;;;;;5054291;28;20171;-42
2023/06/20 12:02:26;;;;;;;6.07;5.30;;;;;;;;;;5052689;28;20171;-42
2023/06/20 12:04:59;;;;;;;8.80;6.07;;;;;;;;;;5055555;28;20191;-42
2023/06/20 12:07:28;;;;;;;15.35;6.40;;;;;;;;;;5053129;28;20217;-42
2023/06/20 12:09:54;;;;;;;14.45;6.80;;;;;;;;;;5053638;28;20221;-42
2023/06/20 12:12:29;;;;;;;14.73;7.13;;;;;;;;;;5055332;28;20211;-42
2023/06/20 12:14:55;;;;;;;18.50;6.82;;;;;;;;;;5056449;28;20175;-42
2023/06/20 12:17:21;;;;;;;19.33;7.00;;;;;;;;;;5067195;28;20271;-43
2023/06/20 12:19:53;;;;;;;15.20;6.38;;;;;;;;;;5061058;28;20250;-43
2023/06/20 12:22:19;;;;;;;12.02;6.45;;;;;;;;;;5053116;28;20202;-43
2023/06/20 12:24:45;;;;;;;10.35;5.88;;;;;;;;;;5053302;28;20216;-43
2023/06/20 12:27:11;;;;;;;10.40;6.22;;;;;;;;;;5050698;28;20243;-43
2023/06/20 12:29:37;;;;;;;8.32;5.93;;;;;;;;;;5053057;28;20234;-43
2023/06/20 12:32:04;;;;;;;10.00;6.00;;;;;;;;;;5065055;28;20262;-43
2023/06/20 12:34:29;;;;;;;8.52;5.80;;;;;;;;;;5053525;28;20179;-43
2023/06/20 12:36:55;;;;;;;7.50;6.00;;;;;;;;;;5053863;28;20220;-43
2023/06/20 12:39:21;;;;;;;6.03;5.43;;;;;;;;;;5064162;28;20190;-43
2023/06/20 12:41:47;;;;;;;9.35;6.20;;;;;;;;;;5054381;28;20190;-50
2023/06/20 12:44:13;;;;;;;7.40;6.00;;;;;;;;;;5051776;28;20277;-50
2023/06/20 12:46:41;;;;;;;8.32;5.88;;;;;;;;;;5058974;28;20203;-49
2023/06/20 12:49:07;;;;;;;7.57;5.72;;;;;;;;;;5053085;28;20294;-50
2023/06/20 12:51:35;;;;;;;10.48;6.40;;;;;;;;;;5053937;28;20254;-50
2023/06/20 12:54:01;;;;;;;6.55;5.82;;;;;;;;;;5053110;28;20206;-50
2023/06/20 12:56:27;;;;;;;7.72;5.95;;;;;;;;;;5052709;28;20177;-49
2023/06/20 12:58:53;;;;;;;7.00;5.05;;;;;;;;;;5053183;28;20183;-49
2023/06/20 13:01:20;;;;;;;6.22;5.63;;;;;;;;;;5053208;28;20194;-51
2023/06/20 13:03:46;;;;;;;6.63;5.78;;;;;;;;;;5062246;28;20187;-51
2023/06/20 13:06:12;;;;;;;7.00;5.97;;;;;;;;;;5052984;28;20183;-50
2023/06/20 13:08:38;;;;;;;5.47;4.95;;;;;;;;;;5052415;28;20586;-50
2023/06/20 13:11:04;;;;;;;5.85;5.25;;;;;;;;;;5061887;28;20295;-49
2023/06/20 13:13:30;;;;;;;7.15;5.15;;;;;;;;;;5055669;28;20175;-50
2023/06/20 13:15:56;;;;;;;6.47;5.10;;;;;;;;;;5072261;28;20174;-51
2023/06/20 13:18:22;;;;;;;6.85;5.80;;;;;;;;;;5069449;28;20183;-49
2023/06/20 13:20:48;;;;;;;6.13;5.50;;;;;;;;;;5064808;28;20290;-50
2023/06/20 13:23:14;;;;;;;6.53;5.07;;;;;;;;;;5053213;28;20278;-50
2023/06/20 13:25:40;;;;;;;7.22;5.10;;;;;;;;;;5049451;28;20180;-50
2023/06/20 13:28:07;;;;;;;5.45;4.80;;;;;;;;;;5049992;28;20186;-50
2023/06/20 13:30:34;;;;;;;5.25;4.72;;;;;;;;;;5055870;28;20222;-49
2023/06/20 13:32:59;;;;;;;4.90;4.40;;;;;;;;;;5063550;28;20175;-50
2023/06/20 13:35:26;;;;;;;7.93;4.57;;;;;;;;;;5058676;28;20206;-51
2023/06/20 13:37:52;;;;;;;4.90;4.40;;;;;;;;;;5053276;28;20258;-50
2023/06/20 13:40:19;;;;;;;6.13;4.15;;;;;;;;;;5057181;28;20271;-50
2023/06/20 13:42:48;;;;;;;4.60;4.03;;;;;;;;;;5055962;28;20529;-50
2023/06/20 13:45:14;;;;;;;4.07;3.67;;;;;;;;;;5064255;28;20191;-50
2023/06/20 13:47:40;;;;;;;4.03;3.17;;;;;;;;;;5056332;28;20191;-49
2023/06/20 13:50:07;;;;;;;4.32;3.92;;;;;;;;;;5055709;28;20207;-50
2023/06/20 13:52:34;;;;;;;4.93;3.75;;;;;;;;;;5050685;28;20270;-50
2023/06/20 13:55:00;;;;;;;3.80;3.40;;;;;;;;;;5055370;28;20176;-50
2023/06/20 13:57:26;;;;;;;3.83;3.42;;;;;;;;;;5056348;28;20261;-49
2023/06/20 13:59:52;;;;;;;4.03;3.42;;;;;;;;;;5050175;28;20302;-50
2023/06/20 14:02:19;;;;;;;5.57;3.63;;;;;;;;;;5056482;28;20186;-50
2023/06/20 14:04:45;;;;;;;3.70;3.17;;;;;;;;;;5064069;28;20171;-49
2023/06/20 14:07:11;;;;;;;3.38;3.08;;;;;;;;;;5059252;28;20191;-49
2023/06/20 14:09:37;;;;;;;4.57;3.67;;;;;;;;;;5068408;28;20296;-49
2023/06/20 14:12:04;;;;;;;3.75;3.40;;;;;;;;;;5061437;28;20262;-50
2023/06/20 14:14:30;;;;;;;5.30;3.45;;;;;;;;;;5054110;28;20202;-50
2023/06/20 14:16:57;;;;;;;5.93;3.40;;;;;;;;;;5063594;28;20265;-50
2023/06/20 14:19:22;;;;;;;4.65;3.53;;;;;;;;;;5064618;28;20194;-49
2023/06/20 14:21:48;;;;;;;6.03;3.72;;;;;;;;;;5054647;28;20189;-49
2023/06/20 14:24:14;;;;;;;6.43;3.13;;;;;;;;;;5058546;28;20218;-49
2023/06/20 14:26:41;;;;;;;3.78;3.15;;;;;;;;;;5063897;28;20187;-49
2023/06/20 14:29:07;;;;;;;5.00;3.20;;;;;;;;;;5051783;28;20478;-49
2023/06/20 14:31:33;;;;;;;4.07;3.28;;;;;;;;;;5055582;28;20191;-50
2023/06/20 14:33:59;;;;;;;3.70;3.30;;;;;;;;;;5055733;28;20270;-50
2023/06/20 14:36:25;;;;;;;3.88;3.40;;;;;;;;;;5055356;28;20521;-49
2023/06/20 14:38:51;;;;;;;4.07;3.17;;;;;;;;;;5054340;28;20187;-50
2023/06/20 14:41:17;;;;;;;7.25;3.45;;;;;;;;;;5072185;28;20188;-50
2023/06/20 14:43:43;;;;;;;4.68;3.33;;;;;;;;;;5058557;28;21079;-50